createdAt,value
2019-05-12T00:00:41.024Z,8.98
2019-05-12T00:03:18.712Z,7.15
2019-05-12T00:05:53.522Z,9.08
2019-05-12T00:08:28.954Z,9.00
2019-05-12T00:11:04.615Z,7.60
2019-05-12T00:13:40.186Z,7.65
2019-05-12T00:16:17.575Z,10.48
2019-05-12T00:18:52.714Z,8.38
2019-05-12T00:21:28.425Z,7.40
2019-05-12T00:24:12.656Z,8.63
2019-05-12T00:29:23.315Z,9.28
2019-05-12T00:31:58.819Z,8.60
2019-05-12T00:34:34.228Z,7.60
2019-05-12T00:37:09.752Z,11.83
2019-05-12T00:39:47.701Z,8.78
2019-05-12T00:42:23.159Z,10.38
2019-05-12T00:44:58.646Z,8.00
2019-05-12T00:47:34.094Z,8.45
2019-05-12T00:50:11.181Z,7.87
2019-05-12T00:52:48.823Z,10.32
2019-05-12T00:55:23.517Z,8.78
2019-05-12T00:57:58.924Z,6.62
2019-05-12T01:00:34.414Z,7.47
2019-05-12T01:03:09.798Z,10.53
2019-05-12T01:05:45.221Z,8.83
2019-05-12T01:08:20.609Z,10.55
2019-05-12T01:10:57.762Z,11.97
2019-05-12T01:13:32.969Z,7.75
2019-05-12T01:16:08.345Z,11.60
2019-05-12T01:18:43.823Z,12.85
2019-05-12T01:21:19.224Z,12.28
2019-05-12T01:24:00.493Z,11.95
2019-05-12T01:26:31.828Z,9.33
2019-05-12T01:29:08.458Z,8.70
2019-05-12T01:31:51.110Z,11.20
2019-05-12T01:34:27.799Z,11.88
2019-05-12T01:37:22.180Z,11.60
2019-05-12T01:39:59.870Z,7.87
2019-05-12T01:42:34.662Z,11.12
2019-05-12T01:45:10.173Z,11.55
2019-05-12T01:47:45.624Z,10.15
2019-05-12T01:50:20.973Z,12.90
2019-05-12T01:52:58.748Z,10.53
2019-05-12T01:55:34.374Z,12.63
2019-05-12T01:58:09.863Z,8.65
2019-05-12T02:00:48.098Z,11.25
2019-05-12T02:03:22.910Z,10.70
2019-05-12T02:05:59.440Z,10.50
2019-05-12T02:08:49.539Z,13.75
2019-05-12T02:11:34.061Z,11.88
2019-05-12T02:14:09.547Z,14.20
2019-05-12T02:16:44.959Z,19.05
2019-05-12T02:19:20.313Z,13.83
2019-05-12T02:21:57.792Z,18.12
2019-05-12T02:24:32.903Z,9.80
2019-05-12T02:27:08.336Z,12.35
2019-05-12T02:29:44.209Z,12.23
2019-05-12T02:32:19.552Z,11.35
2019-05-12T02:34:55.131Z,10.80
2019-05-12T02:37:30.520Z,11.73
2019-05-12T02:40:07.247Z,11.05
2019-05-12T02:42:46.803Z,12.35
2019-05-12T02:45:24.874Z,12.43
2019-05-12T02:47:59.275Z,15.23
2019-05-12T02:50:37.484Z,11.18
2019-05-12T02:53:14.524Z,13.18
2019-05-12T02:55:54.097Z,14.25
2019-05-12T02:58:34.262Z,12.50
2019-05-12T03:01:09.059Z,12.80
2019-05-12T03:03:45.550Z,11.12
2019-05-12T03:06:21.268Z,14.13
2019-05-12T03:09:04.818Z,11.65
2019-05-12T03:11:40.866Z,12.47
2019-05-12T03:14:16.370Z,14.00
2019-05-12T03:16:54.054Z,13.90
2019-05-12T03:19:34.646Z,13.83
2019-05-12T03:22:14.216Z,16.75
2019-05-12T03:25:07.758Z,14.63
2019-05-12T03:27:35.054Z,15.38
2019-05-12T03:30:12.567Z,15.83
2019-05-12T03:32:48.052Z,11.68
2019-05-12T03:35:32.810Z,15.00
2019-05-12T03:38:00.475Z,12.73
2019-05-12T03:40:38.361Z,15.45
2019-05-12T03:43:14.852Z,16.87
2019-05-12T03:45:50.418Z,16.95
2019-05-12T03:48:25.824Z,14.98
2019-05-12T03:51:04.914Z,14.23
2019-05-12T03:53:39.453Z,14.03
2019-05-12T03:56:15.246Z,15.78
2019-05-12T03:58:53.902Z,12.05
2019-05-12T04:01:27.836Z,12.98
2019-05-12T04:04:05.087Z,14.90
2019-05-12T04:06:40.179Z,14.18
2019-05-12T04:09:16.069Z,17.65
2019-05-12T04:11:54.545Z,12.50
2019-05-12T04:14:28.363Z,14.35
2019-05-12T04:17:04.852Z,15.53
2019-05-12T04:19:40.410Z,12.15
2019-05-12T04:22:16.039Z,15.40
2019-05-12T04:24:55.096Z,15.25
2019-05-12T04:27:29.388Z,14.93
2019-05-12T04:30:05.647Z,14.33
2019-05-12T04:32:41.107Z,11.70
2019-05-12T04:35:16.525Z,14.00
2019-05-12T04:37:55.069Z,12.35
2019-05-12T04:40:28.958Z,17.92
2019-05-12T04:43:05.737Z,16.25
2019-05-12T04:45:41.463Z,13.95
2019-05-12T04:48:21.333Z,11.28
2019-05-12T04:50:54.837Z,12.70
2019-05-12T04:53:30.352Z,13.48
2019-05-12T04:56:15.254Z,13.30
2019-05-12T04:58:44.995Z,15.30
2019-05-12T05:01:19.776Z,14.18
2019-05-12T05:03:55.126Z,16.27
2019-05-12T05:06:34.096Z,15.98
2019-05-12T05:09:08.947Z,12.25
2019-05-12T05:11:45.260Z,14.65
2019-05-12T05:14:20.836Z,13.60
2019-05-12T05:16:56.390Z,15.08
2019-05-12T05:19:33.757Z,13.10
2019-05-12T05:22:09.071Z,11.75
2019-05-12T05:24:44.468Z,12.80
2019-05-12T05:27:19.769Z,14.25
2019-05-12T05:29:55.091Z,14.28
2019-05-12T05:32:30.501Z,16.12
2019-05-12T05:35:07.747Z,15.25
2019-05-12T05:37:44.321Z,13.70
2019-05-12T05:40:24.470Z,13.13
2019-05-12T05:42:56.769Z,13.30
2019-05-12T05:45:34.694Z,11.80
2019-05-12T05:48:10.324Z,12.50
2019-05-12T05:50:45.730Z,14.10
2019-05-12T05:53:21.037Z,11.93
2019-05-12T05:56:00.171Z,15.53
2019-05-12T05:58:34.040Z,13.22
2019-05-12T06:01:10.581Z,11.35
2019-05-12T06:03:45.892Z,15.63
2019-05-12T06:06:23.653Z,16.30
2019-05-12T06:08:59.364Z,12.65
2019-05-12T06:11:35.094Z,12.33
2019-05-12T06:14:12.920Z,12.98
2019-05-12T06:16:47.409Z,11.93
2019-05-12T06:19:26.176Z,11.48
2019-05-12T06:22:00.806Z,11.48
2019-05-12T06:24:36.216Z,10.45
2019-05-12T06:27:16.248Z,10.50
2019-05-12T06:29:52.507Z,11.15
2019-05-12T06:32:25.405Z,11.28
2019-05-12T06:35:02.265Z,10.78
2019-05-12T06:37:38.345Z,11.43
2019-05-12T06:40:14.255Z,12.65
2019-05-12T06:42:55.590Z,12.75
2019-05-12T06:45:28.301Z,9.20
2019-05-12T06:48:04.657Z,12.60
2019-05-12T06:50:40.962Z,12.78
2019-05-12T06:53:20.048Z,12.05
2019-05-12T06:55:54.060Z,10.30
2019-05-12T06:58:32.095Z,13.25
2019-05-12T07:01:10.460Z,12.05
2019-05-12T07:03:44.082Z,10.43
2019-05-12T07:06:20.004Z,12.25
2019-05-12T07:09:05.332Z,8.70
2019-05-12T07:11:44.566Z,8.95
2019-05-12T07:14:18.872Z,7.87
2019-05-12T07:17:01.772Z,8.10
2019-05-12T07:19:33.995Z,6.85
2019-05-12T07:22:19.868Z,8.58
2019-05-12T07:24:51.807Z,12.73
2019-05-12T07:27:36.796Z,7.25
2019-05-12T07:30:08.627Z,12.45
2019-05-12T07:32:44.061Z,9.58
2019-05-12T07:35:19.432Z,9.38
2019-05-12T07:37:57.953Z,11.48
2019-05-12T07:40:37.167Z,9.55
2019-05-12T07:43:16.256Z,7.72
2019-05-12T07:45:56.603Z,10.05
2019-05-12T07:48:28.290Z,11.93
2019-05-12T07:51:04.161Z,9.45
2019-05-12T07:53:40.048Z,7.60
2019-05-12T07:56:19.570Z,6.80
2019-05-12T07:58:56.488Z,7.60
2019-05-12T08:01:29.413Z,6.80
2019-05-12T08:04:04.866Z,8.73
2019-05-12T08:06:42.282Z,5.70
2019-05-12T08:09:17.254Z,6.92
2019-05-12T08:11:54.069Z,7.17
2019-05-12T08:14:33.148Z,5.87
2019-05-12T08:17:12.102Z,7.90
2019-05-12T08:19:45.665Z,4.20
2019-05-12T08:22:27.155Z,4.70
2019-05-12T08:24:58.580Z,7.20
2019-05-12T08:27:34.169Z,5.35
2019-05-12T08:30:13.653Z,5.42
2019-05-12T08:32:48.567Z,5.03
2019-05-12T08:35:29.327Z,3.00
2019-05-12T08:38:03.958Z,5.67
2019-05-12T08:40:45.022Z,5.30
2019-05-12T08:43:16.641Z,5.12
2019-05-12T08:45:53.663Z,6.70
2019-05-12T08:48:29.399Z,8.80
2019-05-12T08:51:13.574Z,5.80
2019-05-12T08:53:43.974Z,4.30
2019-05-12T08:56:20.541Z,4.05
2019-05-12T08:58:56.115Z,4.17
2019-05-12T09:01:31.465Z,6.70
2019-05-12T09:04:15.107Z,3.50
2019-05-12T09:06:50.229Z,5.28
2019-05-12T09:09:25.906Z,3.25
2019-05-12T09:12:03.443Z,5.30
2019-05-12T09:14:41.238Z,5.10
2019-05-12T09:17:15.428Z,4.55
2019-05-12T09:19:56.622Z,9.53
2019-05-12T09:22:28.082Z,4.53
2019-05-12T09:25:08.237Z,7.58
2019-05-12T09:27:45.629Z,6.40
2019-05-12T09:30:27.664Z,6.80
2019-05-12T09:33:04.031Z,8.00
2019-05-12T09:35:39.690Z,3.67
2019-05-12T09:38:21.355Z,4.60
2019-05-12T09:41:00.565Z,6.37
2019-05-12T09:43:29.328Z,5.53
2019-05-12T09:46:04.736Z,5.37
2019-05-12T09:48:48.464Z,5.10
2019-05-12T09:51:17.449Z,4.67
2019-05-12T09:53:55.330Z,3.72
2019-05-12T09:56:30.188Z,5.92
2019-05-12T09:59:17.122Z,5.28
2019-05-12T10:01:45.730Z,5.37
2019-05-12T10:04:19.836Z,6.15
2019-05-12T10:06:55.440Z,4.05
2019-05-12T10:09:33.431Z,3.65
2019-05-12T10:12:09.787Z,3.75
2019-05-12T10:14:46.009Z,3.40
2019-05-12T10:17:26.300Z,3.05
2019-05-12T10:20:00.879Z,3.12
2019-05-12T10:22:40.043Z,5.08
2019-05-12T10:25:15.015Z,3.60
2019-05-12T10:27:50.469Z,2.70
2019-05-12T10:30:26.022Z,3.00
2019-05-12T10:33:03.438Z,3.27
2019-05-12T10:35:38.471Z,2.80
2019-05-12T10:38:13.985Z,5.60
2019-05-12T10:40:49.482Z,3.47
2019-05-12T10:43:25.051Z,2.67
2019-05-12T10:46:00.516Z,2.87
2019-05-12T10:48:36.024Z,2.60
2019-05-12T10:51:11.512Z,2.60
2019-05-12T10:53:48.717Z,2.70
2019-05-12T10:56:24.950Z,3.42
2019-05-12T10:59:00.314Z,2.87
2019-05-12T11:01:38.374Z,3.75
2019-05-12T11:04:14.354Z,3.67
2019-05-12T11:06:49.858Z,3.60
2019-05-12T11:09:29.390Z,2.60
2019-05-12T11:12:03.423Z,3.62
2019-05-12T11:14:39.011Z,3.95
2019-05-12T11:17:15.928Z,2.83
2019-05-12T11:19:54.095Z,2.55
2019-05-12T11:22:28.847Z,6.28
2019-05-12T11:25:04.462Z,2.58
2019-05-12T11:27:39.963Z,3.45
2019-05-12T11:30:15.601Z,3.58
2019-05-12T11:32:53.269Z,3.02
2019-05-12T11:35:28.235Z,3.27
2019-05-12T11:38:04.745Z,4.05
2019-05-12T11:40:40.215Z,3.05
2019-05-12T11:43:15.771Z,3.92
2019-05-12T11:45:53.296Z,2.77
2019-05-12T11:48:28.440Z,2.83
2019-05-12T11:51:04.037Z,2.47
2019-05-12T11:53:39.688Z,3.75
2019-05-12T11:56:15.228Z,2.77
2019-05-12T11:58:52.060Z,3.45
2019-05-12T12:01:28.976Z,2.75
2019-05-12T12:04:04.533Z,2.20
2019-05-12T12:06:39.904Z,2.50
2019-05-12T12:09:18.833Z,2.00
2019-05-12T12:11:57.040Z,2.27
2019-05-12T12:14:31.753Z,2.42
2019-05-12T12:17:06.924Z,3.10
2019-05-12T12:19:46.685Z,2.77
2019-05-12T12:22:20.321Z,1.80
2019-05-12T12:25:10.454Z,1.67
2019-05-12T12:27:36.045Z,2.40
2019-05-12T12:30:19.284Z,2.67
2019-05-12T12:32:50.255Z,3.58
2019-05-12T12:35:27.124Z,2.92
2019-05-12T12:38:03.528Z,3.35
2019-05-12T12:40:40.805Z,5.03
2019-05-12T12:43:16.191Z,2.08
2019-05-12T12:46:16.738Z,2.45
2019-05-12T12:48:47.766Z,2.50
2019-05-12T12:51:23.670Z,2.17
2019-05-12T12:53:59.127Z,2.58
2019-05-12T12:56:34.867Z,2.72
2019-05-12T12:59:11.993Z,1.95
2019-05-12T13:01:47.586Z,2.22
2019-05-12T13:04:24.848Z,1.85
2019-05-12T13:07:00.152Z,3.17
2019-05-12T13:09:35.531Z,2.35
2019-05-12T13:12:15.785Z,2.67
2019-05-12T13:14:48.162Z,2.45
2019-05-12T13:17:28.965Z,3.40
2019-05-12T13:20:00.618Z,2.50
2019-05-12T13:22:36.172Z,2.10
2019-05-12T13:25:14.025Z,2.25
2019-05-12T13:27:48.996Z,1.95
2019-05-12T13:30:24.516Z,3.33
2019-05-12T13:32:59.966Z,2.80
2019-05-12T13:35:35.527Z,2.55
2019-05-12T13:38:11.088Z,4.78
2019-05-12T13:40:46.650Z,3.70
2019-05-12T13:43:23.845Z,3.92
2019-05-12T13:45:59.329Z,3.55
2019-05-12T13:48:34.838Z,3.45
2019-05-12T13:51:13.253Z,3.65
2019-05-12T13:53:50.202Z,3.85
2019-05-12T13:56:29.845Z,3.37
2019-05-12T13:59:01.332Z,4.97
2019-05-12T14:01:40.305Z,3.00
2019-05-12T14:04:14.126Z,3.10
2019-05-12T14:06:49.557Z,2.67
2019-05-12T14:09:25.238Z,3.22
2019-05-12T14:12:00.657Z,2.83
2019-05-12T14:14:36.552Z,2.85
2019-05-12T14:17:15.293Z,4.00
2019-05-12T14:19:50.784Z,2.77
2019-05-12T14:22:41.339Z,3.58
2019-05-12T14:25:21.056Z,2.37
2019-05-12T14:27:54.143Z,3.35
2019-05-12T14:30:29.712Z,3.27
2019-05-12T14:33:05.230Z,2.62
2019-05-12T14:35:46.154Z,2.87
2019-05-12T14:38:27.449Z,4.28
2019-05-12T14:41:01.199Z,2.72
2019-05-12T14:43:37.241Z,3.12
2019-05-12T14:46:14.667Z,4.10
2019-05-12T14:48:50.559Z,2.42
2019-05-12T14:51:26.472Z,4.17
2019-05-12T14:54:03.896Z,3.72
2019-05-12T14:56:47.228Z,3.62
2019-05-12T14:59:16.369Z,3.20
2019-05-12T15:01:57.814Z,3.55
2019-05-12T15:04:29.928Z,3.05
2019-05-12T15:07:09.847Z,3.42
2019-05-12T15:09:42.748Z,3.92
2019-05-12T15:12:18.640Z,3.47
2019-05-12T15:14:54.338Z,4.42
2019-05-12T15:17:29.867Z,3.65
2019-05-12T15:20:09.172Z,3.58
2019-05-12T15:22:51.326Z,4.33
2019-05-12T15:25:20.002Z,3.08
2019-05-12T15:27:55.413Z,3.27
2019-05-12T15:30:30.864Z,3.02
2019-05-12T15:33:06.293Z,2.72
2019-05-12T15:35:43.790Z,3.17
2019-05-12T15:38:18.719Z,4.45
2019-05-12T15:40:54.163Z,3.40
2019-05-12T15:43:29.508Z,3.00
2019-05-12T15:46:04.880Z,3.70
2019-05-12T15:48:44.620Z,3.22
2019-05-12T15:51:20.297Z,3.60
2019-05-12T15:54:05.058Z,2.90
2019-05-12T15:56:33.881Z,3.12
2019-05-12T15:59:09.473Z,4.08
2019-05-12T16:01:44.889Z,4.58
2019-05-12T16:04:20.258Z,2.70
2019-05-12T16:06:57.753Z,2.83
2019-05-12T16:09:34.446Z,2.15
2019-05-12T16:12:18.834Z,3.47
2019-05-12T16:14:46.785Z,3.70
2019-05-12T16:17:24.902Z,4.37
2019-05-12T16:19:59.260Z,4.17
2019-05-12T16:22:37.302Z,3.65
2019-05-12T16:25:14.854Z,2.50
2019-05-12T16:27:49.452Z,2.33
2019-05-12T16:30:25.719Z,4.33
2019-05-12T16:33:03.627Z,2.98
2019-05-12T16:35:39.005Z,1.90
2019-05-12T16:38:19.672Z,2.00
2019-05-12T16:40:53.927Z,2.50
2019-05-12T16:43:34.835Z,2.08
2019-05-12T16:46:06.580Z,3.22
2019-05-12T16:48:47.348Z,2.37
2019-05-12T16:51:19.320Z,2.65
2019-05-12T16:53:54.775Z,2.22
2019-05-12T16:56:30.288Z,2.17
2019-05-12T16:59:15.343Z,4.47
2019-05-12T17:01:45.487Z,3.95
2019-05-12T17:04:20.879Z,2.00
2019-05-12T17:06:56.373Z,3.65
2019-05-12T17:09:33.196Z,1.82
2019-05-12T17:12:08.697Z,4.95
2019-05-12T17:14:48.551Z,3.17
2019-05-12T17:17:21.444Z,2.10
2019-05-12T17:19:56.790Z,3.98
2019-05-12T17:22:32.297Z,4.28
2019-05-12T17:25:10.407Z,2.83
2019-05-12T17:27:45.235Z,2.50
2019-05-12T17:30:20.850Z,3.45
2019-05-12T17:33:01.325Z,2.47
2019-05-12T17:35:34.957Z,2.35
2019-05-12T17:38:11.687Z,2.05
2019-05-12T17:40:50.205Z,3.02
2019-05-12T17:43:26.849Z,3.62
2019-05-12T17:46:04.458Z,2.50
2019-05-12T17:48:42.733Z,3.30
2019-05-12T17:51:20.502Z,3.27
2019-05-12T17:53:54.071Z,3.15
2019-05-12T17:56:34.162Z,1.47
2019-05-12T17:59:06.814Z,3.47
2019-05-12T18:01:43.589Z,2.60
2019-05-12T18:04:20.436Z,2.85
2019-05-12T18:06:56.450Z,2.02
2019-05-12T18:09:31.981Z,2.60
2019-05-12T18:12:07.528Z,3.52
2019-05-12T18:14:51.961Z,2.62
2019-05-12T18:17:19.912Z,1.85
2019-05-12T18:20:00.603Z,1.82
2019-05-12T18:22:33.945Z,4.15
2019-05-12T18:25:09.782Z,3.42
2019-05-12T18:27:50.613Z,4.10
2019-05-12T18:30:23.849Z,5.20
2019-05-12T18:33:04.711Z,3.25
2019-05-12T18:35:37.970Z,2.87
2019-05-12T18:38:21.570Z,4.17
2019-05-12T18:40:50.727Z,2.77
2019-05-12T18:43:26.109Z,4.95
2019-05-12T18:46:06.340Z,2.25
2019-05-12T18:48:38.978Z,3.20
2019-05-12T18:51:17.548Z,1.92
2019-05-12T18:53:53.990Z,3.87
2019-05-12T18:56:30.105Z,2.45
2019-05-12T18:59:11.590Z,4.55
2019-05-12T19:01:43.621Z,3.33
2019-05-12T19:04:19.084Z,3.15
2019-05-12T19:06:54.512Z,1.60
2019-05-12T19:09:29.940Z,3.00
2019-05-12T19:12:16.071Z,4.22
2019-05-12T19:14:43.639Z,4.55
2019-05-12T19:17:19.058Z,3.40
2019-05-12T19:20:00.052Z,3.80
2019-05-12T19:22:33.587Z,3.72
2019-05-12T19:25:10.222Z,2.40
2019-05-12T19:27:48.097Z,3.95
2019-05-12T19:30:27.113Z,2.58
2019-05-12T19:33:10.692Z,1.80
2019-05-12T19:35:56.495Z,3.35
2019-05-12T19:38:28.025Z,2.53
2019-05-12T19:41:04.816Z,5.30
2019-05-12T19:43:49.267Z,2.02
2019-05-12T19:46:23.940Z,3.85
2019-05-12T19:48:58.939Z,3.05
2019-05-12T19:51:34.640Z,2.70
2019-05-12T19:54:19.318Z,2.10
2019-05-12T19:56:58.711Z,3.37
2019-05-12T19:59:44.058Z,4.25
2019-05-12T20:02:16.005Z,7.67
2019-05-12T20:04:56.848Z,2.90
2019-05-12T20:07:34.219Z,3.22
2019-05-12T20:10:16.511Z,3.20
2019-05-12T20:12:57.714Z,4.12
2019-05-12T20:15:45.350Z,3.65
2019-05-12T20:18:24.985Z,2.80
2019-05-12T20:21:00.503Z,5.97
2019-05-12T20:23:35.994Z,6.33
2019-05-12T20:26:14.629Z,6.15
2019-05-12T20:28:51.040Z,5.47
2019-05-12T20:31:43.492Z,4.37
2019-05-12T20:34:15.740Z,5.72
2019-05-12T20:36:59.082Z,2.75
2019-05-12T20:39:34.533Z,5.12
2019-05-12T20:42:10.014Z,3.98
2019-05-12T20:44:45.642Z,3.90
2019-05-12T20:47:23.302Z,7.00
2019-05-12T20:49:59.471Z,4.92
2019-05-12T20:52:39.504Z,3.95
2019-05-12T20:55:14.592Z,4.33
2019-05-12T20:57:56.011Z,6.22
2019-05-12T21:00:33.709Z,4.35
2019-05-12T21:03:10.597Z,5.62
2019-05-12T21:05:58.077Z,4.85
2019-05-12T21:08:38.556Z,2.45
2019-05-12T21:11:17.252Z,5.45
2019-05-12T21:13:54.559Z,3.77
2019-05-12T21:16:34.396Z,3.40
2019-05-12T21:19:14.008Z,3.98
2019-05-12T21:21:51.924Z,3.90
2019-05-12T21:24:29.497Z,4.62
2019-05-12T21:27:17.956Z,5.55
2019-05-12T21:29:54.095Z,5.37
2019-05-12T21:32:33.995Z,6.05
2019-05-12T21:35:19.037Z,3.30
2019-05-12T21:37:48.572Z,5.53
2019-05-12T21:40:30.211Z,4.53
2019-05-12T21:43:00.491Z,3.92
2019-05-12T21:45:36.015Z,4.45
2019-05-12T21:48:15.004Z,4.28
2019-05-12T21:50:48.536Z,4.40
2019-05-12T21:53:24.034Z,3.90
2019-05-12T21:56:03.990Z,3.92
2019-05-12T21:58:36.577Z,4.37
2019-05-12T22:01:13.626Z,5.47
2019-05-12T22:03:58.008Z,3.45
2019-05-12T22:06:26.386Z,3.62
2019-05-12T22:09:04.436Z,2.90
2019-05-12T22:11:42.307Z,7.12
2019-05-12T22:14:16.890Z,4.50
2019-05-12T22:16:54.136Z,4.95
2019-05-12T22:19:38.089Z,2.75
2019-05-12T22:22:13.477Z,3.80
2019-05-12T22:24:53.730Z,4.47
2019-05-12T22:27:31.009Z,2.87
2019-05-12T22:30:08.224Z,3.55
2019-05-12T22:32:50.519Z,6.58
2019-05-12T22:35:27.651Z,3.20
2019-05-12T22:38:09.274Z,5.65
2019-05-12T22:40:40.116Z,3.65
2019-05-12T22:43:15.656Z,4.37
2019-05-12T22:45:51.054Z,4.58
2019-05-12T22:48:29.941Z,6.62
2019-05-12T22:51:06.137Z,5.97
2019-05-12T22:53:40.644Z,4.60
2019-05-12T22:56:17.974Z,5.58
2019-05-12T22:59:00.113Z,4.35
2019-05-12T23:01:34.556Z,4.12
2019-05-12T23:04:07.977Z,4.25
2019-05-12T23:06:46.477Z,5.22
2019-05-12T23:09:27.938Z,5.70
2019-05-12T23:11:57.382Z,4.58
2019-05-12T23:14:34.044Z,5.35
2019-05-12T23:17:09.543Z,7.33
2019-05-12T23:19:51.443Z,5.33
2019-05-12T23:22:23.613Z,5.20
2019-05-12T23:24:59.229Z,6.28
2019-05-12T23:27:34.617Z,5.22
2019-05-12T23:30:12.614Z,5.00
2019-05-12T23:32:51.329Z,6.03
2019-05-12T23:35:28.376Z,7.40
2019-05-12T23:38:04.211Z,6.35
2019-05-12T23:40:38.633Z,4.67
2019-05-12T23:43:14.615Z,3.65
2019-05-12T23:45:53.326Z,3.08
2019-05-12T23:48:28.838Z,3.65
2019-05-12T23:51:04.148Z,3.98
2019-05-12T23:53:39.592Z,3.87
2019-05-12T23:56:14.932Z,5.90
2019-05-12T23:58:50.246Z,3.85
